sensor_id;sensor_type;location;lat;lon;timestamp;P1;durP1;ratioP1;P2;durP2;ratioP2
20758;SDS011;10539;53.686;9.158;2023-06-19T00:02:03;7.05;;;5.43;;
20758;SDS011;10539;53.686;9.158;2023-06-19T00:04:29;9.88;;;5.28;;
20758;SDS011;10539;53.686;9.158;2023-06-19T00:06:55;7.35;;;5.75;;
20758;SDS011;10539;53.686;9.158;2023-06-19T00:09:20;8.63;;;5.15;;
20758;SDS011;10539;53.686;9.158;2023-06-19T00:11:46;6.95;;;5.40;;
20758;SDS011;10539;53.686;9.158;2023-06-19T00:14:12;6.45;;;5.55;;
20758;SDS011;10539;53.686;9.158;2023-06-19T00:16:37;6.22;;;5.00;;
20758;SDS011;10539;53.686;9.158;2023-06-19T00:19:05;7.88;;;5.40;;
20758;SDS011;10539;53.686;9.158;2023-06-19T00:21:31;6.72;;;5.28;;
20758;SDS011;10539;53.686;9.158;2023-06-19T00:23:56;7.82;;;5.45;;
20758;SDS011;10539;53.686;9.158;2023-06-19T00:26:22;6.13;;;4.90;;
20758;SDS011;10539;53.686;9.158;2023-06-19T00:28:49;7.68;;;5.10;;
20758;SDS011;10539;53.686;9.158;2023-06-19T00:31:15;7.78;;;5.15;;
20758;SDS011;10539;53.686;9.158;2023-06-19T00:33:41;7.47;;;4.80;;
20758;SDS011;10539;53.686;9.158;2023-06-19T00:36:11;11.00;;;5.28;;
20758;SDS011;10539;53.686;9.158;2023-06-19T00:38:40;8.70;;;5.07;;
20758;SDS011;10539;53.686;9.158;2023-06-19T00:41:06;6.88;;;4.93;;
20758;SDS011;10539;53.686;9.158;2023-06-19T00:43:32;11.73;;;4.97;;
20758;SDS011;10539;53.686;9.158;2023-06-19T00:45:58;8.57;;;5.95;;
20758;SDS011;10539;53.686;9.158;2023-06-19T00:48:25;7.88;;;5.18;;
20758;SDS011;10539;53.686;9.158;2023-06-19T00:50:53;6.75;;;5.30;;
20758;SDS011;10539;53.686;9.158;2023-06-19T00:53:19;5.93;;;4.72;;
20758;SDS011;10539;53.686;9.158;2023-06-19T00:55:46;6.03;;;4.93;;
20758;SDS011;10539;53.686;9.158;2023-06-19T00:58:13;7.63;;;5.47;;
20758;SDS011;10539;53.686;9.158;2023-06-19T01:00:40;8.85;;;5.55;;
20758;SDS011;10539;53.686;9.158;2023-06-19T01:03:06;8.02;;;5.57;;
20758;SDS011;10539;53.686;9.158;2023-06-19T01:05:31;6.78;;;5.22;;
20758;SDS011;10539;53.686;9.158;2023-06-19T01:08:13;7.32;;;5.25;;
20758;SDS011;10539;53.686;9.158;2023-06-19T01:10:50;6.15;;;5.22;;
20758;SDS011;10539;53.686;9.158;2023-06-19T01:13:22;6.43;;;5.40;;
20758;SDS011;10539;53.686;9.158;2023-06-19T01:16:08;6.30;;;5.15;;
20758;SDS011;10539;53.686;9.158;2023-06-19T01:18:36;8.43;;;5.07;;
20758;SDS011;10539;53.686;9.158;2023-06-19T01:21:12;6.25;;;5.00;;
20758;SDS011;10539;53.686;9.158;2023-06-19T01:23:40;8.25;;;5.70;;
20758;SDS011;10539;53.686;9.158;2023-06-19T01:26:07;8.80;;;5.63;;
20758;SDS011;10539;53.686;9.158;2023-06-19T01:28:36;6.30;;;5.07;;
20758;SDS011;10539;53.686;9.158;2023-06-19T01:31:05;9.05;;;5.43;;
20758;SDS011;10539;53.686;9.158;2023-06-19T01:33:34;6.35;;;5.07;;
20758;SDS011;10539;53.686;9.158;2023-06-19T01:36:03;6.80;;;5.28;;
20758;SDS011;10539;53.686;9.158;2023-06-19T01:38:29;7.20;;;5.15;;
20758;SDS011;10539;53.686;9.158;2023-06-19T01:40:56;5.55;;;4.97;;
20758;SDS011;10539;53.686;9.158;2023-06-19T01:43:23;8.38;;;5.38;;
20758;SDS011;10539;53.686;9.158;2023-06-19T01:45:49;6.85;;;5.15;;
20758;SDS011;10539;53.686;9.158;2023-06-19T01:48:15;9.90;;;5.47;;
20758;SDS011;10539;53.686;9.158;2023-06-19T01:50:45;6.28;;;5.40;;
20758;SDS011;10539;53.686;9.158;2023-06-19T01:53:12;7.78;;;5.65;;
20758;SDS011;10539;53.686;9.158;2023-06-19T01:55:38;10.65;;;5.15;;
20758;SDS011;10539;53.686;9.158;2023-06-19T01:58:04;7.13;;;5.25;;
20758;SDS011;10539;53.686;9.158;2023-06-19T02:00:30;6.82;;;5.47;;
20758;SDS011;10539;53.686;9.158;2023-06-19T02:03:00;8.73;;;5.10;;
20758;SDS011;10539;53.686;9.158;2023-06-19T02:05:26;7.63;;;5.13;;
20758;SDS011;10539;53.686;9.158;2023-06-19T02:07:52;6.78;;;5.22;;
20758;SDS011;10539;53.686;9.158;2023-06-19T02:10:17;6.15;;;5.25;;
20758;SDS011;10539;53.686;9.158;2023-06-19T02:12:43;6.95;;;5.53;;
20758;SDS011;10539;53.686;9.158;2023-06-19T02:15:09;9.90;;;5.35;;
20758;SDS011;10539;53.686;9.158;2023-06-19T02:17:35;7.78;;;5.47;;
20758;SDS011;10539;53.686;9.158;2023-06-19T02:20:01;6.85;;;5.45;;
20758;SDS011;10539;53.686;9.158;2023-06-19T02:22:27;7.40;;;5.20;;
20758;SDS011;10539;53.686;9.158;2023-06-19T02:24:52;7.35;;;5.53;;
20758;SDS011;10539;53.686;9.158;2023-06-19T02:27:18;6.90;;;5.03;;
20758;SDS011;10539;53.686;9.158;2023-06-19T02:29:44;8.23;;;5.30;;
20758;SDS011;10539;53.686;9.158;2023-06-19T02:32:10;8.43;;;5.25;;
20758;SDS011;10539;53.686;9.158;2023-06-19T02:34:36;9.05;;;6.07;;
20758;SDS011;10539;53.686;9.158;2023-06-19T02:37:01;6.15;;;5.10;;
20758;SDS011;10539;53.686;9.158;2023-06-19T02:39:28;7.68;;;5.88;;
20758;SDS011;10539;53.686;9.158;2023-06-19T02:41:54;7.20;;;5.30;;
20758;SDS011;10539;53.686;9.158;2023-06-19T02:44:20;8.55;;;5.45;;
20758;SDS011;10539;53.686;9.158;2023-06-19T02:46:45;9.93;;;5.60;;
20758;SDS011;10539;53.686;9.158;2023-06-19T02:49:11;8.20;;;5.90;;
20758;SDS011;10539;53.686;9.158;2023-06-19T02:51:37;7.10;;;5.40;;
20758;SDS011;10539;53.686;9.158;2023-06-19T02:54:02;8.13;;;6.15;;
20758;SDS011;10539;53.686;9.158;2023-06-19T02:56:28;9.48;;;5.60;;
20758;SDS011;10539;53.686;9.158;2023-06-19T02:58:54;6.70;;;5.00;;
20758;SDS011;10539;53.686;9.158;2023-06-19T03:01:20;11.90;;;6.10;;
20758;SDS011;10539;53.686;9.158;2023-06-19T03:03:49;7.30;;;5.90;;
20758;SDS011;10539;53.686;9.158;2023-06-19T03:06:17;6.63;;;5.43;;
20758;SDS011;10539;53.686;9.158;2023-06-19T03:08:43;8.88;;;5.63;;
20758;SDS011;10539;53.686;9.158;2023-06-19T03:11:09;8.30;;;6.22;;
20758;SDS011;10539;53.686;9.158;2023-06-19T03:13:46;8.75;;;5.75;;
20758;SDS011;10539;53.686;9.158;2023-06-19T03:16:14;8.82;;;5.80;;
20758;SDS011;10539;53.686;9.158;2023-06-19T03:18:40;8.10;;;5.70;;
20758;SDS011;10539;53.686;9.158;2023-06-19T03:21:07;10.95;;;6.28;;
20758;SDS011;10539;53.686;9.158;2023-06-19T03:23:34;8.48;;;5.95;;
20758;SDS011;10539;53.686;9.158;2023-06-19T03:25:59;7.78;;;5.88;;
20758;SDS011;10539;53.686;9.158;2023-06-19T03:28:25;7.70;;;6.18;;
20758;SDS011;10539;53.686;9.158;2023-06-19T03:30:51;9.20;;;5.90;;
20758;SDS011;10539;53.686;9.158;2023-06-19T03:33:17;9.95;;;6.20;;
20758;SDS011;10539;53.686;9.158;2023-06-19T03:35:43;8.32;;;6.38;;
20758;SDS011;10539;53.686;9.158;2023-06-19T03:38:09;7.13;;;5.95;;
20758;SDS011;10539;53.686;9.158;2023-06-19T03:40:34;13.95;;;6.18;;
20758;SDS011;10539;53.686;9.158;2023-06-19T03:43:00;10.38;;;6.47;;
20758;SDS011;10539;53.686;9.158;2023-06-19T03:45:26;9.90;;;7.13;;
20758;SDS011;10539;53.686;9.158;2023-06-19T03:47:52;8.52;;;6.28;;
20758;SDS011;10539;53.686;9.158;2023-06-19T03:50:18;8.25;;;6.57;;
20758;SDS011;10539;53.686;9.158;2023-06-19T03:52:44;8.68;;;6.78;;
20758;SDS011;10539;53.686;9.158;2023-06-19T03:55:11;8.60;;;6.30;;
20758;SDS011;10539;53.686;9.158;2023-06-19T03:57:37;8.50;;;6.63;;
20758;SDS011;10539;53.686;9.158;2023-06-19T04:00:02;7.80;;;6.50;;
20758;SDS011;10539;53.686;9.158;2023-06-19T04:02:36;12.23;;;6.88;;
20758;SDS011;10539;53.686;9.158;2023-06-19T04:05:02;8.98;;;6.80;;
20758;SDS011;10539;53.686;9.158;2023-06-19T04:07:28;7.88;;;6.22;;
20758;SDS011;10539;53.686;9.158;2023-06-19T04:09:55;8.95;;;6.82;;
20758;SDS011;10539;53.686;9.158;2023-06-19T04:12:20;8.98;;;6.63;;
20758;SDS011;10539;53.686;9.158;2023-06-19T04:14:46;9.25;;;6.80;;
20758;SDS011;10539;53.686;9.158;2023-06-19T04:17:12;9.63;;;6.82;;
20758;SDS011;10539;53.686;9.158;2023-06-19T04:19:39;8.85;;;6.78;;
20758;SDS011;10539;53.686;9.158;2023-06-19T04:22:05;9.55;;;7.07;;
20758;SDS011;10539;53.686;9.158;2023-06-19T04:24:30;7.80;;;6.65;;
20758;SDS011;10539;53.686;9.158;2023-06-19T04:26:56;9.38;;;7.03;;
20758;SDS011;10539;53.686;9.158;2023-06-19T04:29:22;9.85;;;7.05;;
20758;SDS011;10539;53.686;9.158;2023-06-19T04:31:48;10.98;;;6.80;;
20758;SDS011;10539;53.686;9.158;2023-06-19T04:34:15;11.43;;;7.50;;
20758;SDS011;10539;53.686;9.158;2023-06-19T04:36:42;9.77;;;7.60;;
20758;SDS011;10539;53.686;9.158;2023-06-19T04:39:08;9.23;;;7.25;;
20758;SDS011;10539;53.686;9.158;2023-06-19T04:41:34;13.30;;;7.38;;
20758;SDS011;10539;53.686;9.158;2023-06-19T04:44:06;9.85;;;7.57;;
20758;SDS011;10539;53.686;9.158;2023-06-19T04:46:33;10.38;;;7.50;;
20758;SDS011;10539;53.686;9.158;2023-06-19T04:48:59;15.30;;;7.97;;
20758;SDS011;10539;53.686;9.158;2023-06-19T04:51:25;8.63;;;7.55;;
20758;SDS011;10539;53.686;9.158;2023-06-19T04:53:51;10.43;;;7.07;;
20758;SDS011;10539;53.686;9.158;2023-06-19T04:56:17;12.68;;;8.50;;
20758;SDS011;10539;53.686;9.158;2023-06-19T04:58:43;8.98;;;7.38;;
20758;SDS011;10539;53.686;9.158;2023-06-19T05:01:12;11.23;;;8.32;;
20758;SDS011;10539;53.686;9.158;2023-06-19T05:03:39;9.57;;;8.10;;
20758;SDS011;10539;53.686;9.158;2023-06-19T05:06:06;10.13;;;7.80;;
20758;SDS011;10539;53.686;9.158;2023-06-19T05:08:31;15.13;;;7.88;;
20758;SDS011;10539;53.686;9.158;2023-06-19T05:10:57;18.77;;;8.50;;
20758;SDS011;10539;53.686;9.158;2023-06-19T05:13:23;10.73;;;8.52;;
20758;SDS011;10539;53.686;9.158;2023-06-19T05:15:49;12.60;;;8.40;;
20758;SDS011;10539;53.686;9.158;2023-06-19T05:18:18;11.52;;;7.50;;
20758;SDS011;10539;53.686;9.158;2023-06-19T05:20:44;11.52;;;8.32;;
20758;SDS011;10539;53.686;9.158;2023-06-19T05:23:10;10.27;;;7.50;;
20758;SDS011;10539;53.686;9.158;2023-06-19T05:25:36;8.93;;;7.95;;
20758;SDS011;10539;53.686;9.158;2023-06-19T05:28:01;8.70;;;7.72;;
20758;SDS011;10539;53.686;9.158;2023-06-19T05:30:27;11.65;;;8.18;;
20758;SDS011;10539;53.686;9.158;2023-06-19T05:32:53;14.73;;;7.70;;
20758;SDS011;10539;53.686;9.158;2023-06-19T05:35:19;10.25;;;7.90;;
20758;SDS011;10539;53.686;9.158;2023-06-19T05:37:45;11.63;;;8.75;;
20758;SDS011;10539;53.686;9.158;2023-06-19T05:40:11;9.43;;;8.43;;
20758;SDS011;10539;53.686;9.158;2023-06-19T05:42:37;11.45;;;8.77;;
20758;SDS011;10539;53.686;9.158;2023-06-19T05:45:03;9.80;;;8.52;;
20758;SDS011;10539;53.686;9.158;2023-06-19T05:47:30;11.90;;;8.75;;
20758;SDS011;10539;53.686;9.158;2023-06-19T05:49:56;12.82;;;8.45;;
20758;SDS011;10539;53.686;9.158;2023-06-19T05:52:23;10.55;;;8.65;;
20758;SDS011;10539;53.686;9.158;2023-06-19T05:54:54;11.40;;;8.50;;
20758;SDS011;10539;53.686;9.158;2023-06-19T05:57:25;12.45;;;8.73;;
20758;SDS011;10539;53.686;9.158;2023-06-19T05:59:51;12.25;;;8.73;;
20758;SDS011;10539;53.686;9.158;2023-06-19T06:02:20;10.65;;;9.07;;
20758;SDS011;10539;53.686;9.158;2023-06-19T06:04:52;13.10;;;8.55;;
20758;SDS011;10539;53.686;9.158;2023-06-19T06:07:18;12.90;;;9.05;;
20758;SDS011;10539;53.686;9.158;2023-06-19T06:09:45;11.88;;;8.80;;
20758;SDS011;10539;53.686;9.158;2023-06-19T06:12:10;11.80;;;9.00;;
20758;SDS011;10539;53.686;9.158;2023-06-19T06:14:37;11.73;;;9.35;;
20758;SDS011;10539;53.686;9.158;2023-06-19T06:17:02;10.68;;;8.95;;
20758;SDS011;10539;53.686;9.158;2023-06-19T06:19:30;13.77;;;9.32;;
20758;SDS011;10539;53.686;9.158;2023-06-19T06:21:56;14.93;;;9.40;;
20758;SDS011;10539;53.686;9.158;2023-06-19T06:24:21;12.75;;;8.50;;
20758;SDS011;10539;53.686;9.158;2023-06-19T06:26:47;13.05;;;8.98;;
20758;SDS011;10539;53.686;9.158;2023-06-19T06:29:13;9.95;;;8.52;;
20758;SDS011;10539;53.686;9.158;2023-06-19T06:31:39;12.20;;;9.32;;
20758;SDS011;10539;53.686;9.158;2023-06-19T06:34:07;12.18;;;8.95;;
20758;SDS011;10539;53.686;9.158;2023-06-19T06:36:32;11.35;;;9.15;;
20758;SDS011;10539;53.686;9.158;2023-06-19T06:38:58;18.05;;;10.70;;
20758;SDS011;10539;53.686;9.158;2023-06-19T06:41:24;10.75;;;8.95;;
20758;SDS011;10539;53.686;9.158;2023-06-19T06:43:50;12.20;;;9.05;;
20758;SDS011;10539;53.686;9.158;2023-06-19T06:46:19;12.20;;;10.07;;
20758;SDS011;10539;53.686;9.158;2023-06-19T06:48:45;13.63;;;9.70;;
20758;SDS011;10539;53.686;9.158;2023-06-19T06:51:11;13.57;;;9.25;;
20758;SDS011;10539;53.686;9.158;2023-06-19T06:53:37;10.57;;;8.95;;
20758;SDS011;10539;53.686;9.158;2023-06-19T06:56:02;12.10;;;9.82;;
20758;SDS011;10539;53.686;9.158;2023-06-19T06:58:28;11.63;;;9.52;;
20758;SDS011;10539;53.686;9.158;2023-06-19T07:00:55;11.95;;;9.02;;
20758;SDS011;10539;53.686;9.158;2023-06-19T07:03:26;11.57;;;9.43;;
20758;SDS011;10539;53.686;9.158;2023-06-19T07:05:55;12.20;;;9.52;;
20758;SDS011;10539;53.686;9.158;2023-06-19T07:08:20;10.10;;;8.80;;
20758;SDS011;10539;53.686;9.158;2023-06-19T07:10:46;13.65;;;9.32;;
20758;SDS011;10539;53.686;9.158;2023-06-19T07:13:12;12.25;;;9.10;;
20758;SDS011;10539;53.686;9.158;2023-06-19T07:15:37;14.65;;;9.73;;
20758;SDS011;10539;53.686;9.158;2023-06-19T07:18:03;11.02;;;8.88;;
20758;SDS011;10539;53.686;9.158;2023-06-19T07:20:29;10.27;;;9.18;;
20758;SDS011;10539;53.686;9.158;2023-06-19T07:22:55;12.20;;;9.43;;
20758;SDS011;10539;53.686;9.158;2023-06-19T07:25:20;11.05;;;9.02;;
20758;SDS011;10539;53.686;9.158;2023-06-19T07:27:49;11.23;;;9.43;;
20758;SDS011;10539;53.686;9.158;2023-06-19T07:30:15;12.27;;;9.95;;
20758;SDS011;10539;53.686;9.158;2023-06-19T07:32:40;14.55;;;9.38;;
20758;SDS011;10539;53.686;9.158;2023-06-19T07:35:06;14.10;;;9.57;;
20758;SDS011;10539;53.686;9.158;2023-06-19T07:37:33;12.10;;;9.55;;
20758;SDS011;10539;53.686;9.158;2023-06-19T07:39:58;11.88;;;10.05;;
20758;SDS011;10539;53.686;9.158;2023-06-19T07:42:25;11.75;;;9.82;;
20758;SDS011;10539;53.686;9.158;2023-06-19T07:44:51;12.95;;;10.25;;
20758;SDS011;10539;53.686;9.158;2023-06-19T07:47:17;11.70;;;9.85;;
20758;SDS011;10539;53.686;9.158;2023-06-19T07:49:43;13.32;;;9.70;;
20758;SDS011;10539;53.686;9.158;2023-06-19T07:52:10;14.15;;;9.98;;
20758;SDS011;10539;53.686;9.158;2023-06-19T07:54:47;12.32;;;9.57;;
20758;SDS011;10539;53.686;9.158;2023-06-19T07:57:15;11.88;;;9.60;;
20758;SDS011;10539;53.686;9.158;2023-06-19T07:59:41;12.05;;;9.57;;
20758;SDS011;10539;53.686;9.158;2023-06-19T08:02:07;13.13;;;8.82;;
20758;SDS011;10539;53.686;9.158;2023-06-19T08:04:33;11.20;;;8.98;;
20758;SDS011;10539;53.686;9.158;2023-06-19T08:06:58;12.60;;;9.25;;
20758;SDS011;10539;53.686;9.158;2023-06-19T08:09:24;11.77;;;8.52;;
20758;SDS011;10539;53.686;9.158;2023-06-19T08:11:50;13.10;;;9.20;;
20758;SDS011;10539;53.686;9.158;2023-06-19T08:14:15;11.57;;;9.10;;
20758;SDS011;10539;53.686;9.158;2023-06-19T08:16:41;10.45;;;9.20;;
20758;SDS011;10539;53.686;9.158;2023-06-19T08:19:07;12.80;;;9.07;;
20758;SDS011;10539;53.686;9.158;2023-06-19T08:21:33;10.68;;;9.35;;
20758;SDS011;10539;53.686;9.158;2023-06-19T08:23:58;12.20;;;9.48;;
20758;SDS011;10539;53.686;9.158;2023-06-19T08:26:24;11.55;;;9.27;;
20758;SDS011;10539;53.686;9.158;2023-06-19T08:28:50;10.50;;;8.73;;
20758;SDS011;10539;53.686;9.158;2023-06-19T08:31:16;10.35;;;8.95;;
20758;SDS011;10539;53.686;9.158;2023-06-19T08:33:42;10.30;;;8.57;;
20758;SDS011;10539;53.686;9.158;2023-06-19T08:36:07;11.85;;;9.00;;
20758;SDS011;10539;53.686;9.158;2023-06-19T08:38:33;11.52;;;9.30;;
20758;SDS011;10539;53.686;9.158;2023-06-19T08:40:59;10.45;;;9.40;;
20758;SDS011;10539;53.686;9.158;2023-06-19T08:43:25;12.07;;;8.90;;
20758;SDS011;10539;53.686;9.158;2023-06-19T08:45:56;10.75;;;8.85;;
20758;SDS011;10539;53.686;9.158;2023-06-19T08:48:26;13.38;;;8.95;;
20758;SDS011;10539;53.686;9.158;2023-06-19T08:50:52;10.95;;;8.73;;
20758;SDS011;10539;53.686;9.158;2023-06-19T08:53:20;10.63;;;8.75;;
20758;SDS011;10539;53.686;9.158;2023-06-19T08:55:46;10.82;;;8.73;;
20758;SDS011;10539;53.686;9.158;2023-06-19T08:58:11;12.07;;;8.57;;
20758;SDS011;10539;53.686;9.158;2023-06-19T09:00:47;11.07;;;8.63;;
20758;SDS011;10539;53.686;9.158;2023-06-19T09:03:18;11.18;;;8.55;;
20758;SDS011;10539;53.686;9.158;2023-06-19T09:05:46;13.65;;;8.35;;
20758;SDS011;10539;53.686;9.158;2023-06-19T09:08:15;9.48;;;8.38;;
20758;SDS011;10539;53.686;9.158;2023-06-19T09:11:05;11.88;;;8.68;;
20758;SDS011;10539;53.686;9.158;2023-06-19T09:13:30;11.07;;;8.93;;
20758;SDS011;10539;53.686;9.158;2023-06-19T09:15:58;11.70;;;9.05;;
20758;SDS011;10539;53.686;9.158;2023-06-19T09:18:25;11.40;;;9.05;;
20758;SDS011;10539;53.686;9.158;2023-06-19T09:20:54;11.70;;;8.88;;
20758;SDS011;10539;53.686;9.158;2023-06-19T09:23:20;12.82;;;8.63;;
20758;SDS011;10539;53.686;9.158;2023-06-19T09:28:19;8.85;;;7.70;;
20758;SDS011;10539;53.686;9.158;2023-06-19T09:30:52;11.88;;;7.68;;
20758;SDS011;10539;53.686;9.158;2023-06-19T09:33:18;14.35;;;9.02;;
20758;SDS011;10539;53.686;9.158;2023-06-19T09:35:47;11.18;;;8.88;;
20758;SDS011;10539;53.686;9.158;2023-06-19T09:38:14;10.30;;;8.85;;
20758;SDS011;10539;53.686;9.158;2023-06-19T09:40:47;11.40;;;8.80;;
20758;SDS011;10539;53.686;9.158;2023-06-19T09:43:14;12.55;;;8.20;;
20758;SDS011;10539;53.686;9.158;2023-06-19T09:45:47;11.15;;;9.10;;
20758;SDS011;10539;53.686;9.158;2023-06-19T09:48:20;11.60;;;8.07;;
20758;SDS011;10539;53.686;9.158;2023-06-19T09:50:54;11.50;;;8.15;;
20758;SDS011;10539;53.686;9.158;2023-06-19T09:53:22;9.30;;;7.93;;
20758;SDS011;10539;53.686;9.158;2023-06-19T09:55:49;10.75;;;8.65;;
20758;SDS011;10539;53.686;9.158;2023-06-19T09:58:21;10.40;;;8.10;;
20758;SDS011;10539;53.686;9.158;2023-06-19T10:00:47;8.60;;;7.07;;
20758;SDS011;10539;53.686;9.158;2023-06-19T10:03:16;11.25;;;7.50;;
20758;SDS011;10539;53.686;9.158;2023-06-19T10:05:42;10.07;;;7.50;;
20758;SDS011;10539;53.686;9.158;2023-06-19T10:08:08;8.00;;;6.80;;
20758;SDS011;10539;53.686;9.158;2023-06-19T10:10:34;10.40;;;7.47;;
20758;SDS011;10539;53.686;9.158;2023-06-19T10:13:15;12.00;;;6.95;;
20758;SDS011;10539;53.686;9.158;2023-06-19T10:15:41;8.43;;;6.72;;
20758;SDS011;10539;53.686;9.158;2023-06-19T10:18:12;8.60;;;6.65;;
20758;SDS011;10539;53.686;9.158;2023-06-19T10:20:42;7.03;;;6.25;;
20758;SDS011;10539;53.686;9.158;2023-06-19T10:23:13;9.18;;;7.53;;
20758;SDS011;10539;53.686;9.158;2023-06-19T10:25:44;7.50;;;5.47;;
20758;SDS011;10539;53.686;9.158;2023-06-19T10:28:19;6.72;;;4.88;;
20758;SDS011;10539;53.686;9.158;2023-06-19T10:33:32;8.02;;;5.03;;
20758;SDS011;10539;53.686;9.158;2023-06-19T10:35:59;7.90;;;4.70;;
20758;SDS011;10539;53.686;9.158;2023-06-19T10:38:27;6.38;;;4.95;;
20758;SDS011;10539;53.686;9.158;2023-06-19T10:40:53;7.15;;;5.20;;
20758;SDS011;10539;53.686;9.158;2023-06-19T10:43:23;6.60;;;5.10;;
20758;SDS011;10539;53.686;9.158;2023-06-19T10:45:57;7.20;;;5.70;;
20758;SDS011;10539;53.686;9.158;2023-06-19T10:48:24;13.18;;;5.88;;
20758;SDS011;10539;53.686;9.158;2023-06-19T10:50:50;7.93;;;5.50;;
20758;SDS011;10539;53.686;9.158;2023-06-19T10:53:49;7.50;;;5.47;;
20758;SDS011;10539;53.686;9.158;2023-06-19T10:56:08;8.18;;;5.88;;
20758;SDS011;10539;53.686;9.158;2023-06-19T10:58:34;9.60;;;6.65;;
20758;SDS011;10539;53.686;9.158;2023-06-19T11:00:59;7.80;;;6.30;;
20758;SDS011;10539;53.686;9.158;2023-06-19T11:03:25;9.60;;;6.45;;
20758;SDS011;10539;53.686;9.158;2023-06-19T11:05:53;8.07;;;6.05;;
20758;SDS011;10539;53.686;9.158;2023-06-19T11:08:20;6.80;;;5.38;;
20758;SDS011;10539;53.686;9.158;2023-06-19T11:10:47;7.53;;;5.68;;
20758;SDS011;10539;53.686;9.158;2023-06-19T11:13:14;6.80;;;5.60;;
20758;SDS011;10539;53.686;9.158;2023-06-19T11:15:41;6.70;;;5.78;;
20758;SDS011;10539;53.686;9.158;2023-06-19T11:18:07;7.90;;;6.00;;
20758;SDS011;10539;53.686;9.158;2023-06-19T11:20:46;8.45;;;6.07;;
20758;SDS011;10539;53.686;9.158;2023-06-19T11:23:13;7.10;;;6.03;;
20758;SDS011;10539;53.686;9.158;2023-06-19T11:25:39;9.32;;;5.97;;
20758;SDS011;10539;53.686;9.158;2023-06-19T11:28:16;6.15;;;5.40;;
20758;SDS011;10539;53.686;9.158;2023-06-19T11:30:47;8.07;;;4.80;;
20758;SDS011;10539;53.686;9.158;2023-06-19T11:33:21;5.30;;;4.18;;
20758;SDS011;10539;53.686;9.158;2023-06-19T11:35:48;7.18;;;4.55;;
20758;SDS011;10539;53.686;9.158;2023-06-19T11:38:22;8.35;;;5.07;;
20758;SDS011;10539;53.686;9.158;2023-06-19T11:40:49;7.65;;;5.18;;
20758;SDS011;10539;53.686;9.158;2023-06-19T11:43:29;6.90;;;4.40;;
20758;SDS011;10539;53.686;9.158;2023-06-19T11:46:02;5.68;;;3.97;;
20758;SDS011;10539;53.686;9.158;2023-06-19T11:48:29;10.23;;;3.78;;
20758;SDS011;10539;53.686;9.158;2023-06-19T11:50:55;6.18;;;3.55;;
20758;SDS011;10539;53.686;9.158;2023-06-19T11:53:21;6.40;;;4.15;;
20758;SDS011;10539;53.686;9.158;2023-06-19T11:55:51;7.05;;;4.00;;
20758;SDS011;10539;53.686;9.158;2023-06-19T11:58:19;4.38;;;3.80;;
20758;SDS011;10539;53.686;9.158;2023-06-19T12:00:50;9.52;;;4.18;;
20758;SDS011;10539;53.686;9.158;2023-06-19T12:03:24;5.65;;;4.00;;
20758;SDS011;10539;53.686;9.158;2023-06-19T12:06:16;5.60;;;4.15;;
20758;SDS011;10539;53.686;9.158;2023-06-19T12:08:45;5.22;;;4.10;;
20758;SDS011;10539;53.686;9.158;2023-06-19T12:11:18;4.80;;;4.28;;
20758;SDS011;10539;53.686;9.158;2023-06-19T12:13:47;8.52;;;4.40;;
20758;SDS011;10539;53.686;9.158;2023-06-19T12:16:18;4.82;;;4.30;;
20758;SDS011;10539;53.686;9.158;2023-06-19T12:18:44;6.93;;;4.10;;
20758;SDS011;10539;53.686;9.158;2023-06-19T12:21:12;6.60;;;4.05;;
20758;SDS011;10539;53.686;9.158;2023-06-19T12:23:38;6.13;;;4.45;;
20758;SDS011;10539;53.686;9.158;2023-06-19T12:26:07;5.72;;;4.43;;
20758;SDS011;10539;53.686;9.158;2023-06-19T12:28:33;6.10;;;4.68;;
20758;SDS011;10539;53.686;9.158;2023-06-19T12:30:59;4.72;;;4.20;;
20758;SDS011;10539;53.686;9.158;2023-06-19T12:33:25;6.63;;;4.43;;
20758;SDS011;10539;53.686;9.158;2023-06-19T12:36:07;6.00;;;4.60;;
20758;SDS011;10539;53.686;9.158;2023-06-19T12:38:38;5.15;;;4.40;;
20758;SDS011;10539;53.686;9.158;2023-06-19T12:41:04;8.02;;;4.72;;
20758;SDS011;10539;53.686;9.158;2023-06-19T12:43:38;5.32;;;4.13;;
20758;SDS011;10539;53.686;9.158;2023-06-19T12:46:04;4.10;;;3.55;;
20758;SDS011;10539;53.686;9.158;2023-06-19T12:48:30;4.53;;;3.90;;
20758;SDS011;10539;53.686;9.158;2023-06-19T12:51:00;4.15;;;3.42;;
20758;SDS011;10539;53.686;9.158;2023-06-19T12:53:26;3.55;;;3.22;;
20758;SDS011;10539;53.686;9.158;2023-06-19T12:55:57;5.82;;;4.07;;
20758;SDS011;10539;53.686;9.158;2023-06-19T12:58:24;6.65;;;4.35;;
20758;SDS011;10539;53.686;9.158;2023-06-19T13:01:03;8.98;;;6.18;;
20758;SDS011;10539;53.686;9.158;2023-06-19T13:03:32;10.20;;;6.10;;
20758;SDS011;10539;53.686;9.158;2023-06-19T13:06:15;8.18;;;6.05;;
20758;SDS011;10539;53.686;9.158;2023-06-19T13:08:51;6.68;;;5.97;;
20758;SDS011;10539;53.686;9.158;2023-06-19T13:11:33;6.72;;;5.28;;
20758;SDS011;10539;53.686;9.158;2023-06-19T13:14:13;6.75;;;4.68;;
20758;SDS011;10539;53.686;9.158;2023-06-19T13:16:41;5.25;;;4.75;;
20758;SDS011;10539;53.686;9.158;2023-06-19T13:19:09;6.15;;;4.75;;
20758;SDS011;10539;53.686;9.158;2023-06-19T13:21:35;6.43;;;4.38;;
20758;SDS011;10539;53.686;9.158;2023-06-19T13:24:19;5.80;;;4.63;;
20758;SDS011;10539;53.686;9.158;2023-06-19T13:26:49;4.90;;;4.40;;
20758;SDS011;10539;53.686;9.158;2023-06-19T13:29:25;5.20;;;4.18;;
20758;SDS011;10539;53.686;9.158;2023-06-19T13:31:58;5.38;;;4.13;;
20758;SDS011;10539;53.686;9.158;2023-06-19T13:34:27;5.50;;;4.03;;
20758;SDS011;10539;53.686;9.158;2023-06-19T13:36:56;5.13;;;4.13;;
20758;SDS011;10539;53.686;9.158;2023-06-19T13:39:30;8.73;;;4.15;;
20758;SDS011;10539;53.686;9.158;2023-06-19T13:42:05;4.65;;;3.80;;
20758;SDS011;10539;53.686;9.158;2023-06-19T13:44:32;3.50;;;3.10;;
20758;SDS011;10539;53.686;9.158;2023-06-19T13:47:10;4.10;;;3.33;;
20758;SDS011;10539;53.686;9.158;2023-06-19T13:49:36;4.93;;;3.95;;
20758;SDS011;10539;53.686;9.158;2023-06-19T13:52:13;4.85;;;3.92;;
20758;SDS011;10539;53.686;9.158;2023-06-19T13:54:49;7.05;;;3.90;;
20758;SDS011;10539;53.686;9.158;2023-06-19T13:57:18;4.30;;;3.90;;
20758;SDS011;10539;53.686;9.158;2023-06-19T13:59:47;5.18;;;4.00;;
20758;SDS011;10539;53.686;9.158;2023-06-19T14:02:19;5.72;;;4.43;;
20758;SDS011;10539;53.686;9.158;2023-06-19T14:04:58;6.68;;;4.22;;
20758;SDS011;10539;53.686;9.158;2023-06-19T14:07:32;4.88;;;4.28;;
20758;SDS011;10539;53.686;9.158;2023-06-19T14:10:01;4.40;;;3.90;;
20758;SDS011;10539;53.686;9.158;2023-06-19T14:12:33;4.90;;;4.45;;
20758;SDS011;10539;53.686;9.158;2023-06-19T14:14:59;6.63;;;4.88;;
20758;SDS011;10539;53.686;9.158;2023-06-19T14:17:28;6.25;;;4.80;;
20758;SDS011;10539;53.686;9.158;2023-06-19T14:19:57;5.32;;;4.70;;
20758;SDS011;10539;53.686;9.158;2023-06-19T14:22:29;5.68;;;5.18;;
20758;SDS011;10539;53.686;9.158;2023-06-19T14:25:01;9.98;;;5.65;;
20758;SDS011;10539;53.686;9.158;2023-06-19T14:27:27;7.25;;;5.00;;
20758;SDS011;10539;53.686;9.158;2023-06-19T14:29:54;5.28;;;4.53;;
20758;SDS011;10539;53.686;9.158;2023-06-19T14:32:20;4.55;;;4.07;;
20758;SDS011;10539;53.686;9.158;2023-06-19T14:34:48;5.38;;;4.25;;
20758;SDS011;10539;53.686;9.158;2023-06-19T14:37:20;4.53;;;4.13;;
20758;SDS011;10539;53.686;9.158;2023-06-19T14:39:53;5.88;;;4.03;;
20758;SDS011;10539;53.686;9.158;2023-06-19T14:42:22;5.03;;;4.53;;
20758;SDS011;10539;53.686;9.158;2023-06-19T14:44:54;5.05;;;4.55;;
20758;SDS011;10539;53.686;9.158;2023-06-19T14:47:28;6.03;;;4.50;;
20758;SDS011;10539;53.686;9.158;2023-06-19T14:50:06;5.82;;;4.63;;
20758;SDS011;10539;53.686;9.158;2023-06-19T14:52:32;6.80;;;4.68;;
20758;SDS011;10539;53.686;9.158;2023-06-19T14:54:58;5.35;;;4.72;;